Time;durP1;ratioP1;P1;durP2;ratioP2;P2;SDS_P1;SDS_P2;PMS_P1;PMS_P2;Temp;Humidity;BMP_temperature;BMP_pressure;BME280_temperature;BME280_humidity;BME280_pressure;Samples;Min_cycle;Max_cycle;Signal;HPM_P1;HPM_P2
2022/01/04 00:00:57;;;;;;;2.37;1.40;;;7.40;99.90;;;;;;5088624;28;20753;-75
2022/01/04 00:03:22;;;;;;;2.50;1.70;;;7.40;99.90;;;;;;5089071;28;20198;-74
2022/01/04 00:05:48;;;;;;;5.47;2.03;;;7.50;99.90;;;;;;5089088;28;20530;-74
2022/01/04 00:08:13;;;;;;;3.67;1.60;;;7.50;99.90;;;;;;5086997;28;20220;-74
2022/01/04 00:10:39;;;;;;;7.33;1.70;;;7.50;99.90;;;;;;5091471;28;20210;-73
2022/01/04 00:13:24;;;;;;;4.23;1.67;;;7.50;99.90;;;;;;5091114;28;20245;-73
2022/01/04 00:15:54;;;;;;;3.97;1.40;;;7.50;99.90;;;;;;5065650;28;20202;-73
2022/01/04 00:18:19;;;;;;;8.07;2.20;;;7.50;99.90;;;;;;5072720;28;20202;-73
2022/01/04 00:20:46;;;;;;;5.40;1.57;;;7.60;99.90;;;;;;5074064;28;20177;-73
2022/01/04 00:23:12;;;;;;;2.40;1.60;;;7.60;99.90;;;;;;5073062;28;20670;-74
2022/01/04 00:25:38;;;;;;;2.40;1.47;;;7.60;99.90;;;;;;5073301;28;20206;-74
2022/01/04 00:28:07;;;;;;;4.87;1.50;;;7.60;99.90;;;;;;5072814;28;20212;-74
2022/01/04 00:30:34;;;;;;;5.47;1.40;;;7.60;99.90;;;;;;5090920;28;20210;-73
2022/01/04 00:32:59;;;;;;;3.20;1.30;;;7.50;99.90;;;;;;5091912;28;20189;-73
2022/01/04 00:35:25;;;;;;;2.53;1.30;;;7.50;99.90;;;;;;5073201;28;20575;-73
2022/01/04 00:37:50;;;;;;;7.50;1.90;;;7.50;99.90;;;;;;5073163;28;20210;-73
2022/01/04 00:40:16;;;;;;;5.27;1.87;;;7.50;99.90;;;;;;5072983;28;20202;-76
2022/01/04 00:42:41;;;;;;;4.03;1.27;;;7.40;99.90;;;;;;5074239;28;20197;-72
2022/01/04 00:45:07;;;;;;;4.77;1.83;;;7.50;99.90;;;;;;5076731;28;20246;-74
2022/01/04 00:49:09;;;;;;;5.90;1.73;;;7.50;99.90;;;;;;5071032;28;20234;-72
2022/01/04 00:50:29;;;;;;;3.37;1.10;;;7.50;99.90;;;;;;5074521;28;20548;-72
2022/01/04 00:52:54;;;;;;;3.73;1.23;;;7.40;99.90;;;;;;5055590;28;20198;-73
2022/01/04 00:55:21;;;;;;;2.73;1.30;;;7.50;99.90;;;;;;5051641;28;20202;-74
2022/01/04 00:57:46;;;;;;;3.53;1.33;;;7.40;99.90;;;;;;5082282;28;20210;-73
2022/01/04 01:00:14;;;;;;;3.13;1.30;;;7.50;99.90;;;;;;5072885;28;20177;-74
2022/01/04 01:02:40;;;;;;;4.17;1.43;;;7.50;99.90;;;;;;5073822;28;20634;-74
2022/01/04 01:05:06;;;;;;;5.23;1.83;;;7.50;99.90;;;;;;5091052;28;20194;-72
2022/01/04 01:07:33;;;;;;;5.37;1.30;;;7.50;99.90;;;;;;5091286;28;20202;-72
2022/01/04 01:10:03;;;;;;;3.17;1.40;;;7.50;99.90;;;;;;5090418;28;20194;-72
2022/01/04 01:12:28;;;;;;;4.20;1.33;;;7.50;99.90;;;;;;5090711;28;20281;-72
2022/01/04 01:14:54;;;;;;;3.10;1.17;;;7.50;99.90;;;;;;5073029;28;20257;-72
2022/01/04 01:17:20;;;;;;;3.03;1.20;;;7.50;99.90;;;;;;5072637;28;20231;-72
2022/01/04 01:19:45;;;;;;;3.67;1.23;;;7.40;99.90;;;;;;5090112;28;20202;-72
2022/01/04 01:22:11;;;;;;;4.63;1.63;;;7.40;99.90;;;;;;5090833;28;20230;-72
2022/01/04 01:24:36;;;;;;;3.47;1.20;;;7.40;99.90;;;;;;5092310;28;20285;-74
2022/01/04 01:27:02;;;;;;;2.67;1.37;;;7.50;99.90;;;;;;5095259;28;20186;-72
2022/01/04 01:29:28;;;;;;;2.70;1.00;;;7.40;99.90;;;;;;5094106;28;20735;-72
2022/01/04 01:31:54;;;;;;;4.47;1.63;;;7.50;99.90;;;;;;5076703;28;20217;-72
2022/01/04 01:34:19;;;;;;;4.63;1.10;;;7.50;99.90;;;;;;5076243;28;20199;-73
2022/01/04 01:36:45;;;;;;;4.47;1.60;;;7.50;99.90;;;;;;5094429;28;20206;-71
2022/01/04 01:39:10;;;;;;;5.33;1.00;;;7.50;99.90;;;;;;5094272;28;20197;-72
2022/01/04 01:41:36;;;;;;;4.43;1.00;;;7.50;99.90;;;;;;5094866;28;20243;-72
2022/01/04 01:44:01;;;;;;;1.83;1.10;;;7.50;99.90;;;;;;5094267;28;20217;-72
2022/01/04 01:46:27;;;;;;;3.77;0.90;;;7.50;99.90;;;;;;5094108;28;20202;-71
2022/01/04 01:48:52;;;;;;;4.57;1.03;;;7.50;99.90;;;;;;5075922;28;20190;-74
2022/01/04 01:51:18;;;;;;;3.23;1.13;;;7.50;99.90;;;;;;5076030;28;20205;-72
2022/01/04 01:53:45;;;;;;;2.03;1.07;;;7.50;99.90;;;;;;5094325;28;20202;-73
2022/01/04 01:56:10;;;;;;;3.10;1.60;;;7.50;99.90;;;;;;5075813;28;20206;-72
2022/01/04 01:58:36;;;;;;;4.03;1.40;;;7.50;99.90;;;;;;5093706;28;20214;-72
2022/01/04 02:01:02;;;;;;;2.87;1.07;;;7.50;99.90;;;;;;5075769;28;20190;-72
2022/01/04 02:03:28;;;;;;;2.43;0.90;;;7.50;99.90;;;;;;5093834;28;20214;-72
2022/01/04 02:05:54;;;;;;;4.20;0.90;;;7.50;99.90;;;;;;5076424;28;20170;-72
2022/01/04 02:08:20;;;;;;;3.53;1.00;;;7.50;99.90;;;;;;5093540;28;20234;-73
2022/01/04 02:10:47;;;;;;;3.00;1.03;;;7.50;99.90;;;;;;5077442;28;20662;-72
2022/01/04 02:13:12;;;;;;;3.23;1.43;;;7.50;99.90;;;;;;5075837;28;20206;-73
2022/01/04 02:15:38;;;;;;;3.90;1.20;;;7.40;99.90;;;;;;5075358;28;20807;-73
2022/01/04 02:18:04;;;;;;;2.10;0.97;;;7.40;99.90;;;;;;5075774;28;20190;-73
2022/01/04 02:20:30;;;;;;;3.20;1.00;;;7.40;99.90;;;;;;5093529;28;20198;-72
2022/01/04 02:22:55;;;;;;;3.87;1.17;;;7.40;99.90;;;;;;5093452;28;20190;-72
2022/01/04 02:25:21;;;;;;;4.13;1.43;;;7.40;99.90;;;;;;5093194;28;20232;-72
2022/01/04 02:27:47;;;;;;;3.23;1.10;;;7.40;99.90;;;;;;5093484;28;20542;-74
2022/01/04 02:30:15;;;;;;;5.57;1.13;;;7.40;99.90;;;;;;5075230;28;20175;-72
2022/01/04 02:32:42;;;;;;;2.73;0.83;;;7.40;99.90;;;;;;5094163;28;20841;-72
2022/01/04 02:35:08;;;;;;;1.73;1.00;;;7.40;99.90;;;;;;5074469;28;20696;-73
2022/01/04 02:37:34;;;;;;;4.17;1.23;;;7.40;99.90;;;;;;5093258;28;20240;-73
2022/01/04 02:40:00;;;;;;;4.00;0.87;;;7.40;99.90;;;;;;5074807;28;20666;-74
2022/01/04 02:42:26;;;;;;;3.67;1.03;;;7.40;99.90;;;;;;5093212;28;20639;-74
2022/01/04 02:44:51;;;;;;;2.47;1.10;;;7.40;99.90;;;;;;5093534;28;20170;-73
2022/01/04 02:47:17;;;;;;;4.10;1.17;;;7.40;99.90;;;;;;5093316;28;20217;-73
2022/01/04 02:49:43;;;;;;;2.67;1.10;;;7.30;99.90;;;;;;5092670;28;20198;-73
2022/01/04 02:52:09;;;;;;;2.23;0.80;;;7.30;99.90;;;;;;5075181;28;20241;-74
2022/01/04 02:54:35;;;;;;;2.13;0.90;;;7.40;99.90;;;;;;5092227;28;20226;-73
2022/01/04 02:57:01;;;;;;;1.30;0.60;;;7.40;99.90;;;;;;5075510;28;20552;-72
2022/01/04 02:59:27;;;;;;;3.30;1.20;;;7.40;99.90;;;;;;5074145;28;20213;-73
2022/01/04 03:01:52;;;;;;;1.53;0.60;;;7.40;99.90;;;;;;5093259;28;20222;-73
2022/01/04 03:04:19;;;;;;;3.17;0.90;;;7.30;99.90;;;;;;5093655;28;20201;-73
2022/01/04 03:06:45;;;;;;;1.80;1.30;;;7.40;99.90;;;;;;5093418;28;20201;-74
2022/01/04 03:09:11;;;;;;;1.37;0.60;;;7.30;99.90;;;;;;5092910;28;20182;-72
2022/01/04 03:11:36;;;;;;;2.23;1.07;;;7.30;99.90;;;;;;5094081;28;20214;-73
2022/01/04 03:14:02;;;;;;;1.87;0.93;;;7.30;99.90;;;;;;5093793;28;20569;-74
2022/01/04 03:16:28;;;;;;;4.03;0.97;;;7.40;99.90;;;;;;5075448;28;20262;-73
2022/01/04 03:21:19;;;;;;;3.63;1.00;;;7.40;99.90;;;;;;5096630;28;20182;-73
2022/01/04 03:23:44;;;;;;;3.30;0.97;;;7.40;99.90;;;;;;5077747;28;20170;-74
2022/01/04 03:26:10;;;;;;;1.30;0.90;;;7.40;99.90;;;;;;5095396;28;20207;-72
2022/01/04 03:28:36;;;;;;;2.37;0.80;;;7.40;99.90;;;;;;5091999;28;20194;-73
2022/01/04 03:31:02;;;;;;;3.03;1.10;;;7.40;99.90;;;;;;5092422;28;20273;-73
2022/01/04 03:33:27;;;;;;;4.50;1.20;;;7.40;99.90;;;;;;5092294;28;20614;-74
2022/01/04 03:35:52;;;;;;;2.33;0.93;;;7.40;99.90;;;;;;5092739;28;20170;-73
2022/01/04 03:38:19;;;;;;;3.77;0.90;;;7.40;99.90;;;;;;5089926;28;20292;-74
2022/01/04 03:40:44;;;;;;;2.67;1.03;;;7.30;99.90;;;;;;5077831;28;20191;-72
2022/01/04 03:43:09;;;;;;;4.37;1.00;;;7.30;99.90;;;;;;5062273;28;20289;-73
2022/01/04 03:45:35;;;;;;;2.27;0.60;;;7.30;99.90;;;;;;5081951;28;20248;-72
2022/01/04 03:48:00;;;;;;;1.77;0.83;;;7.30;99.90;;;;;;5064612;28;20729;-73
2022/01/04 03:50:26;;;;;;;2.23;1.03;;;7.30;99.90;;;;;;5083138;28;20202;-74
2022/01/04 03:52:51;;;;;;;1.60;1.03;;;7.30;99.90;;;;;;5083648;28;20202;-73
2022/01/04 03:55:17;;;;;;;2.97;1.00;;;7.30;99.90;;;;;;5075181;28;20239;-73
2022/01/04 03:57:42;;;;;;;2.07;1.00;;;7.30;99.90;;;;;;5079489;28;20214;-74
2022/01/04 04:00:08;;;;;;;2.10;1.03;;;7.30;99.90;;;;;;5079740;28;20200;-73
2022/01/04 04:02:34;;;;;;;2.40;1.43;;;7.30;99.90;;;;;;5082144;28;20202;-73
2022/01/04 04:04:59;;;;;;;2.40;0.70;;;7.30;99.90;;;;;;5083000;28;20658;-73
2022/01/04 04:07:25;;;;;;;1.90;1.10;;;7.30;99.90;;;;;;5064263;28;20218;-73
2022/01/04 04:09:50;;;;;;;4.07;0.97;;;7.30;99.90;;;;;;5075088;28;20853;-72
2022/01/04 04:12:16;;;;;;;2.17;1.00;;;7.20;99.90;;;;;;5083186;28;20180;-73
2022/01/04 04:14:42;;;;;;;2.30;0.70;;;7.30;99.90;;;;;;5080349;28;20171;-72
2022/01/04 04:17:08;;;;;;;2.77;0.90;;;7.30;99.90;;;;;;5077844;28;20217;-74
2022/01/04 04:19:33;;;;;;;2.20;0.97;;;7.30;99.90;;;;;;5062421;28;20309;-71
2022/01/04 04:21:59;;;;;;;1.50;1.03;;;7.30;99.90;;;;;;5079641;28;20238;-73
2022/01/04 04:24:24;;;;;;;1.83;1.47;;;7.30;99.90;;;;;;5079504;28;20183;-74
2022/01/04 04:26:49;;;;;;;1.23;0.90;;;7.30;99.90;;;;;;5083350;28;20778;-72
2022/01/04 04:29:15;;;;;;;3.23;1.17;;;7.30;99.90;;;;;;5064612;28;20206;-73
2022/01/04 04:31:40;;;;;;;2.17;1.33;;;7.20;99.90;;;;;;5061837;28;20215;-74
2022/01/04 04:34:06;;;;;;;3.23;1.17;;;7.30;99.90;;;;;;5061195;28;20218;-73
2022/01/04 04:39:00;;;;;;;2.63;1.23;;;7.20;99.90;;;;;;5073075;22;20222;-70
2022/01/04 04:41:25;;;;;;;1.97;1.00;;;7.20;99.90;;;;;;5053129;28;20200;-72
2022/01/04 04:43:54;;;;;;;2.63;1.70;;;7.20;99.90;;;;;;5032755;28;20334;-70
2022/01/04 04:46:21;;;;;;;3.13;1.17;;;7.20;99.90;;;;;;5032561;28;20202;-70
2022/01/04 04:48:47;;;;;;;5.13;1.20;;;7.20;99.90;;;;;;5024236;28;20211;-70
2022/01/04 04:51:12;;;;;;;3.43;1.07;;;7.20;99.90;;;;;;5043710;28;20176;-70
2022/01/04 04:53:38;;;;;;;3.63;1.10;;;7.20;99.90;;;;;;5021730;28;20171;-70
2022/01/04 04:56:03;;;;;;;6.30;1.27;;;7.20;99.90;;;;;;5030600;28;20543;-70
2022/01/04 04:58:29;;;;;;;1.60;0.97;;;7.20;99.90;;;;;;5029861;28;20215;-70
2022/01/04 05:00:54;;;;;;;3.57;1.33;;;7.20;99.90;;;;;;5030549;28;20196;-71
2022/01/04 05:03:20;;;;;;;3.73;1.10;;;7.20;99.90;;;;;;5030893;28;20649;-70
2022/01/04 05:05:46;;;;;;;1.80;1.10;;;7.20;99.90;;;;;;5031092;28;20199;-70
2022/01/04 05:08:11;;;;;;;2.60;1.37;;;7.10;99.90;;;;;;5019401;28;20582;-70
2022/01/04 05:10:37;;;;;;;3.20;1.17;;;7.10;99.90;;;;;;5020195;28;20208;-70
2022/01/04 05:13:02;;;;;;;2.50;1.30;;;7.10;99.90;;;;;;5031096;28;20558;-70
2022/01/04 05:15:28;;;;;;;3.10;1.20;;;7.20;99.90;;;;;;5030166;28;20753;-71
2022/01/04 05:17:53;;;;;;;3.10;1.17;;;7.10;99.90;;;;;;5031100;28;20240;-70
2022/01/04 05:20:19;;;;;;;2.63;1.20;;;7.20;99.90;;;;;;5020809;28;20203;-70
2022/01/04 05:22:44;;;;;;;4.27;1.50;;;7.10;99.90;;;;;;5038639;28;20759;-70
2022/01/04 05:25:10;;;;;;;3.47;1.07;;;7.10;99.90;;;;;;5038729;28;20200;-70
2022/01/04 05:27:35;;;;;;;4.57;1.60;;;7.10;99.90;;;;;;5040810;28;20204;-70
2022/01/04 05:30:01;;;;;;;2.53;1.60;;;7.10;99.90;;;;;;5042256;28;20211;-70
2022/01/04 05:32:26;;;;;;;4.40;1.40;;;7.10;99.90;;;;;;5015939;28;20204;-70
2022/01/04 05:34:52;;;;;;;2.27;1.37;;;7.10;99.90;;;;;;5023923;28;20664;-70
2022/01/04 05:37:17;;;;;;;4.17;1.30;;;7.10;99.90;;;;;;5024142;28;20215;-70
2022/01/04 05:39:42;;;;;;;2.30;1.30;;;7.10;99.90;;;;;;5039662;28;20222;-70
2022/01/04 05:42:08;;;;;;;2.57;1.57;;;7.10;99.90;;;;;;5043930;28;20255;-70
2022/01/04 05:44:35;;;;;;;3.03;1.30;;;7.10;99.90;;;;;;5038861;28;20185;-70
2022/01/04 05:47:01;;;;;;;2.33;1.50;;;7.10;99.90;;;;;;5018071;28;20214;-70
2022/01/04 05:49:26;;;;;;;4.07;1.50;;;7.10;99.90;;;;;;5039339;28;20204;-71
2022/01/04 05:51:52;;;;;;;3.77;1.80;;;7.10;99.90;;;;;;5050100;28;20687;-71
2022/01/04 05:54:17;;;;;;;6.63;2.20;;;7.20;99.90;;;;;;5032604;28;20179;-70
2022/01/04 05:56:43;;;;;;;2.23;1.40;;;7.20;99.90;;;;;;5050559;28;20176;-71
2022/01/04 05:59:08;;;;;;;5.70;1.60;;;7.20;99.90;;;;;;5031950;28;20265;-71
2022/01/04 06:01:34;;;;;;;3.53;1.60;;;7.20;99.90;;;;;;5050232;28;20203;-71
2022/01/04 06:03:59;;;;;;;3.87;1.60;;;7.20;99.90;;;;;;5032183;28;20286;-70
2022/01/04 06:06:25;;;;;;;3.40;1.70;;;7.20;99.90;;;;;;5050473;28;20167;-69
2022/01/04 06:08:51;;;;;;;6.00;2.57;;;7.20;99.90;;;;;;5052644;28;20200;-73
2022/01/04 06:11:41;;;;;;;4.40;1.83;;;7.20;99.90;;;;;;5038272;28;20208;-73
2022/01/04 06:16:51;;;;;;;3.13;2.10;;;7.20;99.90;;;;;;5036666;28;20226;-73
2022/01/04 06:19:17;;;;;;;3.17;1.90;;;7.20;99.90;;;;;;5034517;28;20710;-71
2022/01/04 06:21:42;;;;;;;3.80;2.00;;;7.20;99.90;;;;;;5053848;28;20219;-71
2022/01/04 06:24:08;;;;;;;3.97;2.07;;;7.20;99.90;;;;;;5035789;28;20198;-71
2022/01/04 06:26:34;;;;;;;4.27;2.03;;;7.10;99.90;;;;;;5035805;28;20172;-69
2022/01/04 06:28:59;;;;;;;4.17;1.90;;;7.20;99.90;;;;;;5054273;28;20218;-71
2022/01/04 06:31:27;;;;;;;4.40;2.20;;;7.10;99.90;;;;;;5054160;28;20206;-72
2022/01/04 06:33:54;;;;;;;2.90;2.20;;;7.10;99.90;;;;;;5053365;28;20234;-72
2022/01/04 06:36:19;;;;;;;6.53;2.13;;;7.20;99.90;;;;;;5053308;28;20168;-70
2022/01/04 06:38:45;;;;;;;4.73;2.03;;;7.20;99.90;;;;;;5040403;28;20226;-71
2022/01/04 06:41:10;;;;;;;3.70;2.60;;;7.20;99.90;;;;;;5043209;28;20291;-74
2022/01/04 06:43:36;;;;;;;6.83;2.13;;;7.30;99.90;;;;;;5037909;28;20199;-74
2022/01/04 06:46:01;;;;;;;7.27;2.90;;;7.20;99.90;;;;;;5054943;28;20199;-71
2022/01/04 06:48:26;;;;;;;5.30;2.87;;;7.20;99.90;;;;;;5034937;28;20222;-72
2022/01/04 06:50:52;;;;;;;6.17;3.20;;;7.30;99.90;;;;;;5055750;28;20225;-70
2022/01/04 06:53:17;;;;;;;6.67;3.00;;;7.30;99.90;;;;;;5034972;28;20673;-70
2022/01/04 06:55:43;;;;;;;6.67;3.33;;;7.30;99.90;;;;;;5052598;28;20230;-69
2022/01/04 06:58:08;;;;;;;5.23;3.60;;;7.30;99.90;;;;;;5052421;28;20214;-70
2022/01/04 07:00:34;;;;;;;5.60;3.90;;;7.30;99.90;;;;;;5049398;28;20222;-70
2022/01/04 07:02:59;;;;;;;9.13;3.60;;;7.30;99.90;;;;;;5049815;28;20757;-69
2022/01/04 07:05:27;;;;;;;7.50;3.80;;;7.30;99.90;;;;;;5053196;28;20211;-69
2022/01/04 07:07:53;;;;;;;5.60;3.20;;;7.40;99.90;;;;;;5052590;28;20694;-69
2022/01/04 07:10:18;;;;;;;6.73;3.57;;;7.40;99.90;;;;;;5052390;28;20203;-69
2022/01/04 07:12:44;;;;;;;5.50;3.63;;;7.40;99.90;;;;;;5034682;28;20714;-69
2022/01/04 07:15:09;;;;;;;6.40;3.67;;;7.40;99.90;;;;;;5034287;28;20183;-69
2022/01/04 07:17:38;;;;;;;7.87;3.97;;;7.40;99.90;;;;;;5034798;28;20219;-69
2022/01/04 07:20:04;;;;;;;5.80;4.27;;;7.50;99.90;;;;;;5051542;28;20672;-69
2022/01/04 07:22:30;;;;;;;8.97;4.30;;;7.50;99.90;;;;;;5033595;28;20212;-69
2022/01/04 07:24:55;;;;;;;6.37;3.70;;;7.50;99.90;;;;;;5052073;28;20204;-69
2022/01/04 07:27:21;;;;;;;7.77;3.97;;;7.50;99.90;;;;;;5034109;28;20195;-69
2022/01/04 07:29:46;;;;;;;21.83;5.77;;;7.50;99.90;;;;;;5052120;28;20612;-69
2022/01/04 07:32:12;;;;;;;26.27;6.33;;;7.50;99.90;;;;;;5048595;28;20704;-70
2022/01/04 07:34:37;;;;;;;13.53;4.83;;;7.60;99.90;;;;;;5049205;28;20230;-69
2022/01/04 07:37:03;;;;;;;8.37;4.20;;;7.70;99.90;;;;;;5031888;28;20204;-69
2022/01/04 07:39:28;;;;;;;6.93;3.97;;;7.60;99.90;;;;;;5033724;28;20270;-69
2022/01/04 07:41:55;;;;;;;7.90;3.93;;;7.60;99.90;;;;;;5014719;28;20235;-69
2022/01/04 07:44:20;;;;;;;6.63;4.00;;;7.60;99.90;;;;;;5048208;28;20345;-69
2022/01/04 07:46:46;;;;;;;4.80;3.40;;;7.70;99.90;;;;;;5031441;28;20287;-70
2022/01/04 07:49:11;;;;;;;9.87;4.07;;;7.70;99.90;;;;;;5036276;28;20208;-69
2022/01/04 07:51:37;;;;;;;4.37;2.90;;;7.70;99.90;;;;;;5051313;28;20261;-69
2022/01/04 07:54:02;;;;;;;5.30;3.40;;;7.70;99.90;;;;;;5050818;28;20180;-69
2022/01/04 07:56:28;;;;;;;6.93;3.70;;;7.70;99.90;;;;;;5033835;28;20211;-70
2022/01/04 07:59:00;;;;;;;9.17;3.50;;;7.70;99.90;;;;;;5051047;28;20300;-69
2022/01/04 08:01:26;;;;;;;4.23;2.93;;;7.80;99.90;;;;;;5051290;28;20206;-70
2022/01/04 08:03:51;;;;;;;4.67;3.07;;;7.80;99.90;;;;;;5033590;28;20358;-68
2022/01/04 08:06:16;;;;;;;4.20;2.83;;;7.80;99.90;;;;;;5033082;28;20172;-69
2022/01/04 08:08:42;;;;;;;3.93;2.20;;;7.90;99.90;;;;;;5051486;28;20658;-69
2022/01/04 08:11:08;;;;;;;3.87;2.43;;;7.90;99.90;;;;;;5051109;28;20220;-69
2022/01/04 08:13:33;;;;;;;6.13;2.70;;;7.90;99.90;;;;;;5051169;28;20295;-69
2022/01/04 08:15:59;;;;;;;5.50;2.87;;;7.90;99.90;;;;;;5051168;28;20191;-70
2022/01/04 08:18:24;;;;;;;4.50;3.10;;;7.90;99.90;;;;;;5050980;28;20676;-70
2022/01/04 08:20:55;;;;;;;5.17;2.53;;;7.90;99.90;;;;;;5033114;28;20201;-68
2022/01/04 08:23:21;;;;;;;3.33;2.20;;;7.90;99.90;;;;;;5033390;28;20290;-68
2022/01/04 08:25:46;;;;;;;4.47;2.37;;;8.00;99.90;;;;;;5033029;28;20282;-69
2022/01/04 08:28:12;;;;;;;5.23;2.37;;;8.00;99.90;;;;;;5032942;28;20769;-69
2022/01/04 08:30:37;;;;;;;3.53;2.27;;;8.00;99.90;;;;;;5047536;28;20196;-69
2022/01/04 08:33:03;;;;;;;3.00;2.07;;;8.00;99.90;;;;;;5030898;28;20184;-69
2022/01/04 08:35:28;;;;;;;3.13;2.13;;;8.00;99.90;;;;;;5039124;28;20214;-69
2022/01/04 08:37:54;;;;;;;5.03;2.00;;;8.10;99.90;;;;;;5050475;28;20322;-69
2022/01/04 08:40:20;;;;;;;3.80;2.10;;;8.10;99.90;;;;;;5032108;28;20212;-69
2022/01/04 08:42:45;;;;;;;4.87;2.27;;;8.10;99.90;;;;;;5032445;28;20549;-69
2022/01/04 08:45:12;;;;;;;4.47;2.10;;;8.10;99.90;;;;;;5032141;28;20827;-69
2022/01/04 08:47:37;;;;;;;5.40;1.80;;;8.20;99.90;;;;;;5032378;28;20306;-69
2022/01/04 08:50:07;;;;;;;5.70;2.23;;;8.20;99.90;;;;;;5032005;28;20195;-69
2022/01/04 08:52:32;;;;;;;4.50;2.23;;;8.20;99.90;;;;;;5049381;28;20199;-69
2022/01/04 08:54:58;;;;;;;5.67;2.13;;;8.20;99.90;;;;;;5050557;28;20683;-69
2022/01/04 08:57:23;;;;;;;3.10;2.37;;;8.20;99.90;;;;;;5032729;28;20187;-69
2022/01/04 08:59:49;;;;;;;6.80;1.87;;;8.10;99.90;;;;;;5032882;28;20279;-69
2022/01/04 09:02:15;;;;;;;5.47;1.93;;;8.20;99.90;;;;;;5050540;28;20235;-69
2022/01/04 09:04:40;;;;;;;3.83;1.70;;;8.20;99.90;;;;;;5050526;28;20691;-69
2022/01/04 09:07:06;;;;;;;4.47;2.17;;;8.20;99.90;;;;;;5032499;28;20227;-69
2022/01/04 09:09:31;;;;;;;3.20;1.80;;;8.20;99.90;;;;;;5032204;28;20554;-69
2022/01/04 09:11:57;;;;;;;3.00;2.03;;;8.10;99.90;;;;;;5050968;28;20176;-70
2022/01/04 09:14:39;;;;;;;3.33;1.83;;;8.10;99.90;;;;;;5032067;28;20243;-69
2022/01/04 09:19:49;;;;;;;3.10;1.90;;;8.20;99.90;;;;;;5040332;28;20214;-70
2022/01/04 09:22:14;;;;;;;7.00;2.17;;;8.20;99.90;;;;;;5050598;28;20638;-70
2022/01/04 09:24:40;;;;;;;3.10;2.00;;;8.20;99.90;;;;;;5050200;28;20218;-69
2022/01/04 09:27:06;;;;;;;8.23;2.13;;;8.20;99.90;;;;;;5033176;28;20200;-69
2022/01/04 09:29:32;;;;;;;6.73;2.13;;;8.30;99.90;;;;;;5049895;28;20583;-69
2022/01/04 09:31:58;;;;;;;5.27;2.40;;;8.30;99.90;;;;;;5050431;28;20660;-69
2022/01/04 09:34:23;;;;;;;2.63;1.80;;;8.20;99.90;;;;;;5050026;28;20196;-70
2022/01/04 09:36:49;;;;;;;5.57;2.10;;;8.20;99.90;;;;;;5049994;28;20196;-69
2022/01/04 09:39:18;;;;;;;3.77;2.13;;;8.20;99.90;;;;;;5031950;28;20687;-69
2022/01/04 09:41:44;;;;;;;3.27;1.80;;;8.20;99.90;;;;;;5050438;28;20659;-69
2022/01/04 09:44:11;;;;;;;4.37;1.70;;;8.20;99.90;;;;;;5032811;28;20775;-69
2022/01/04 09:46:38;;;;;;;2.53;1.80;;;8.20;99.90;;;;;;5053810;28;20211;-69
2022/01/04 09:49:04;;;;;;;5.10;2.10;;;8.20;99.90;;;;;;5053223;28;20283;-69
2022/01/04 09:51:30;;;;;;;3.50;2.10;;;8.20;99.90;;;;;;5053966;28;20791;-69
2022/01/04 09:53:56;;;;;;;3.87;1.90;;;8.20;99.90;;;;;;5054098;28;20178;-70
2022/01/04 09:56:22;;;;;;;3.40;1.97;;;8.20;99.90;;;;;;5045139;28;20195;-70
2022/01/04 09:58:47;;;;;;;3.13;2.13;;;8.20;99.90;;;;;;5053477;28;20211;-71
2022/01/04 10:01:21;;;;;;;3.13;1.70;;;8.20;99.90;;;;;;5053794;28;20200;-70
2022/01/04 10:03:48;;;;;;;3.40;1.90;;;8.20;99.90;;;;;;5051922;28;20199;-69
2022/01/04 10:06:16;;;;;;;2.97;1.70;;;8.20;99.90;;;;;;5024725;28;20230;-70
2022/01/04 10:08:56;;;;;;;3.70;1.97;;;8.20;99.90;;;;;;5022142;28;20254;-69
2022/01/04 10:11:33;;;;;;;3.67;2.13;;;8.10;99.90;;;;;;5033249;28;20200;-70
2022/01/04 10:14:00;;;;;;;3.73;1.90;;;8.20;99.90;;;;;;5049065;28;20684;-70
2022/01/04 10:16:27;;;;;;;5.50;2.07;;;8.10;99.90;;;;;;5033147;28;20204;-70
2022/01/04 10:18:53;;;;;;;3.43;2.37;;;8.10;99.90;;;;;;5035101;28;20219;-70
2022/01/04 10:21:20;;;;;;;4.47;2.47;;;8.00;99.90;;;;;;5034158;28;20225;-69
2022/01/04 10:23:47;;;;;;;5.10;1.97;;;8.10;99.90;;;;;;5028998;28;20186;-69
2022/01/04 10:26:13;;;;;;;4.13;2.40;;;8.10;99.90;;;;;;5033958;28;20574;-70
2022/01/04 10:28:42;;;;;;;3.63;2.07;;;8.20;99.90;;;;;;5050746;28;20209;-70
2022/01/04 10:31:14;;;;;;;4.43;2.50;;;8.20;99.90;;;;;;5042175;28;20215;-70
2022/01/04 10:33:40;;;;;;;12.10;3.20;;;8.30;99.90;;;;;;5042859;28;20279;-70
2022/01/04 10:36:15;;;;;;;5.80;2.53;;;8.40;99.90;;;;;;5053514;28;20251;-70
2022/01/04 10:38:47;;;;;;;5.50;2.40;;;8.40;99.90;;;;;;5068842;22;20829;-72
2022/01/04 10:41:16;;;;;;;13.23;3.03;;;8.30;99.90;;;;;;5044445;28;20220;-73
2022/01/04 10:43:47;;;;;;;10.20;3.80;;;8.40;99.90;;;;;;5027527;28;20219;-73
2022/01/04 10:46:15;;;;;;;2.40;2.17;;;8.50;99.90;;;;;;5052060;28;20277;-73
2022/01/04 10:48:43;;;;;;;4.83;2.37;;;8.50;99.90;;;;;;5050610;28;20212;-72
2022/01/04 10:51:14;;;;;;;4.07;1.93;;;8.40;99.90;;;;;;5046840;28;20192;-73
2022/01/04 10:53:50;;;;;;;4.37;2.73;;;8.40;99.90;;;;;;5052758;28;20237;-73
2022/01/04 10:56:38;;;;;;;3.83;2.57;;;8.60;99.90;;;;;;5038798;28;20207;-72
2022/01/04 10:59:11;;;;;;;4.13;1.93;;;8.70;99.90;;;;;;5039342;28;20216;-71
2022/01/04 11:01:50;;;;;;;3.80;2.30;;;8.50;99.90;;;;;;5021417;28;20743;-73
2022/01/04 11:04:20;;;;;;;4.50;2.47;;;8.40;99.90;;;;;;5033074;28;20227;-71
2022/01/04 11:06:48;;;;;;;3.20;1.60;;;8.30;99.90;;;;;;5034023;28;20211;-72
2022/01/04 11:09:15;;;;;;;5.53;2.23;;;8.40;99.90;;;;;;5050787;28;20184;-71
2022/01/04 11:11:41;;;;;;;3.43;1.73;;;8.30;99.90;;;;;;5034799;28;20196;-71
2022/01/04 11:14:09;;;;;;;2.70;2.13;;;8.20;99.90;;;;;;5034497;28;20261;-71
2022/01/04 11:16:35;;;;;;;3.57;2.00;;;8.20;99.90;;;;;;5052144;28;20664;-71
2022/01/04 11:19:02;;;;;;;4.20;2.00;;;8.20;99.90;;;;;;5047893;28;20358;-71
2022/01/04 11:21:33;;;;;;;5.50;2.30;;;8.20;99.90;;;;;;5049608;28;20668;-71
2022/01/04 11:24:02;;;;;;;5.30;1.80;;;8.20;99.90;;;;;;5035146;28;20229;-72
2022/01/04 11:26:28;;;;;;;2.23;1.67;;;8.20;99.90;;;;;;5033991;28;20220;-71
2022/01/04 11:28:55;;;;;;;2.07;1.70;;;8.10;99.90;;;;;;5051850;28;20703;-71
2022/01/04 11:31:41;;;;;;;2.63;1.70;;;8.10;99.90;;;;;;5052042;28;20219;-71
2022/01/04 11:34:07;;;;;;;5.73;1.97;;;8.10;99.90;;;;;;5034286;28;20203;-71
2022/01/04 11:36:41;;;;;;;5.67;1.93;;;8.10;99.90;;;;;;5033825;28;20535;-71
2022/01/04 11:39:34;;;;;;;3.03;1.83;;;8.00;99.90;;;;;;5034054;28;20208;-71
2022/01/04 11:42:10;;;;;;;4.33;2.03;;;8.10;99.90;;;;;;5043770;28;20656;-71
2022/01/04 11:44:47;;;;;;;3.80;1.90;;;8.10;99.90;;;;;;5034213;28;20280;-71
2022/01/04 11:47:25;;;;;;;3.33;2.17;;;8.10;99.90;;;;;;5033619;28;20209;-71
2022/01/04 11:50:20;;;;;;;3.47;2.23;;;8.10;99.90;;;;;;5012092;28;20246;-71
2022/01/04 11:52:47;;;;;;;3.40;2.27;;;8.20;99.90;;;;;;5051908;28;20199;-71
2022/01/04 11:55:29;;;;;;;4.73;2.30;;;8.30;99.90;;;;;;5033104;28;20232;-71
2022/01/04 11:58:01;;;;;;;5.07;2.57;;;8.40;99.90;;;;;;5032246;28;20219;-72
2022/01/04 12:00:34;;;;;;;3.33;2.47;;;8.40;99.90;;;;;;5051059;28;20172;-71
2022/01/04 12:03:05;;;;;;;2.80;2.10;;;8.40;99.90;;;;;;5052139;28;20540;-71
2022/01/04 12:05:31;;;;;;;3.90;2.27;;;8.50;99.90;;;;;;5033121;28;20216;-71
2022/01/04 12:08:03;;;;;;;4.27;2.43;;;8.40;99.90;;;;;;5032300;28;20617;-71
2022/01/04 12:10:34;;;;;;;5.37;2.43;;;8.40;99.90;;;;;;5033143;28;20208;-70
2022/01/04 12:12:59;;;;;;;4.23;2.57;;;8.40;99.90;;;;;;5033509;28;20200;-71
2022/01/04 12:15:52;;;;;;;3.47;2.30;;;8.50;99.90;;;;;;5050688;28;20179;-72
2022/01/04 12:18:23;;;;;;;4.17;2.00;;;8.50;99.90;;;;;;5023100;28;20253;-71
2022/01/04 12:20:54;;;;;;;5.50;2.60;;;8.50;99.90;;;;;;5026872;28;20202;-71
2022/01/04 12:23:23;;;;;;;4.77;2.53;;;8.50;99.90;;;;;;5033291;28;20269;-71
2022/01/04 12:26:08;;;;;;;4.20;2.20;;;8.50;99.90;;;;;;5050918;28;20655;-71
2022/01/04 12:28:42;;;;;;;6.37;4.00;;;8.50;99.90;;;;;;5032888;28;20204;-71
2022/01/04 12:31:16;;;;;;;5.57;2.60;;;8.40;99.90;;;;;;5033045;28;20214;-71
2022/01/04 12:33:43;;;;;;;4.93;2.60;;;8.40;99.90;;;;;;5033090;28;20603;-70
2022/01/04 12:36:09;;;;;;;5.30;2.60;;;8.40;99.90;;;;;;5050568;28;20190;-71
2022/01/04 12:38:35;;;;;;;4.13;2.70;;;8.40;99.90;;;;;;5050910;28;20671;-71
2022/01/04 12:41:01;;;;;;;4.80;2.97;;;8.40;99.90;;;;;;5032801;28;20200;-71
2022/01/04 12:43:27;;;;;;;6.03;2.67;;;8.40;99.90;;;;;;5033058;28;20283;-71
2022/01/04 12:46:02;;;;;;;4.53;2.60;;;8.40;99.90;;;;;;5032896;28;20199;-71
2022/01/04 12:48:47;;;;;;;8.03;3.10;;;8.40;99.90;;;;;;5032527;28;20215;-70
2022/01/04 12:51:31;;;;;;;5.87;2.77;;;8.40;99.90;;;;;;5023538;28;20654;-71
2022/01/04 12:54:09;;;;;;;4.33;2.50;;;8.30;99.90;;;;;;5033540;28;20167;-71
2022/01/04 12:56:42;;;;;;;3.40;2.30;;;8.30;99.90;;;;;;5032869;28;20199;-71
2022/01/04 12:59:08;;;;;;;19.17;12.13;;;8.40;99.90;;;;;;5032282;28;20306;-71
2022/01/04 13:01:35;;;;;;;9.63;6.23;;;8.40;99.90;;;;;;5032733;28;20203;-72
2022/01/04 13:04:01;;;;;;;10.33;5.80;;;8.40;99.90;;;;;;5032825;28;20223;-71
2022/01/04 13:06:30;;;;;;;7.50;4.13;;;8.50;99.90;;;;;;5032077;28;20214;-71
2022/01/04 13:08:58;;;;;;;11.03;7.33;;;8.40;99.90;;;;;;5033068;28;20191;-71